Terminal Aerodrome Forecast
Issued by NWS Portland, OR

Home | Current Version | Previous Version | Text Only | Print | Product List | Glossary On
Versions: 1 2 3 4 5 6 7 8 9 10 11 12 13 14 15 16 17 18 19 20 21 22 23 24 25 26 27 28 29 30 31 32 33 34 35 36 37 38 39 40 41 42 43 44 45 46 47 48 49 50
000
FTUS46 KPQR 261730
TAFAST
TAF
KAST 261730Z 2618/2718 18007KT P6SM OVC006
     FM261900 18012KT P6SM BKN008 OVC020
     FM262200 18013G22KT P6SM BKN012 OVC030
     FM270500 19018G28KT 6SM -RA BR SCT012 BKN025 OVC040
     FM271200 21017G27KT 5SM RA BR BKN012 OVC025=

USA.gov is the U.S. government's official web portal to all federal, state and local government web resources and services.